sensor_id;sensor_type;location;lat;lon;timestamp;P1;durP1;ratioP1;P2;durP2;ratioP2
42600;SDS011;28229;48.856;9.088;2022-12-31T00:01:16;0.60;;;0.60;;
42600;SDS011;28229;48.856;9.088;2022-12-31T00:03:43;1.63;;;0.57;;
42600;SDS011;28229;48.856;9.088;2022-12-31T00:08:40;0.57;;;0.57;;
42600;SDS011;28229;48.856;9.088;2022-12-31T00:11:08;0.53;;;0.50;;
42600;SDS011;28229;48.856;9.088;2022-12-31T00:13:34;0.70;;;0.70;;
42600;SDS011;28229;48.856;9.088;2022-12-31T00:16:10;0.50;;;0.50;;
42600;SDS011;28229;48.856;9.088;2022-12-31T00:18:41;0.97;;;0.70;;
42600;SDS011;28229;48.856;9.088;2022-12-31T00:21:09;0.50;;;0.50;;
42600;SDS011;28229;48.856;9.088;2022-12-31T00:23:35;0.57;;;0.57;;
42600;SDS011;28229;48.856;9.088;2022-12-31T00:26:06;0.60;;;0.60;;
42600;SDS011;28229;48.856;9.088;2022-12-31T00:28:41;0.90;;;0.60;;
42600;SDS011;28229;48.856;9.088;2022-12-31T00:31:11;0.63;;;0.63;;
42600;SDS011;28229;48.856;9.088;2022-12-31T00:33:41;1.27;;;0.50;;
42600;SDS011;28229;48.856;9.088;2022-12-31T00:36:15;0.60;;;0.60;;
42600;SDS011;28229;48.856;9.088;2022-12-31T00:38:43;1.07;;;0.50;;
42600;SDS011;28229;48.856;9.088;2022-12-31T00:41:11;0.40;;;0.40;;
42600;SDS011;28229;48.856;9.088;2022-12-31T00:43:38;0.40;;;0.40;;
42600;SDS011;28229;48.856;9.088;2022-12-31T00:46:04;0.80;;;0.70;;
42600;SDS011;28229;48.856;9.088;2022-12-31T00:48:32;0.57;;;0.57;;
42600;SDS011;28229;48.856;9.088;2022-12-31T00:50:59;1.77;;;0.60;;
42600;SDS011;28229;48.856;9.088;2022-12-31T00:53:26;0.50;;;0.50;;
42600;SDS011;28229;48.856;9.088;2022-12-31T00:55:58;0.70;;;0.70;;
42600;SDS011;28229;48.856;9.088;2022-12-31T00:58:28;1.47;;;0.73;;
42600;SDS011;28229;48.856;9.088;2022-12-31T01:00:54;0.70;;;0.70;;
42600;SDS011;28229;48.856;9.088;2022-12-31T01:03:21;0.60;;;0.60;;
42600;SDS011;28229;48.856;9.088;2022-12-31T01:05:47;0.60;;;0.60;;
42600;SDS011;28229;48.856;9.088;2022-12-31T01:08:15;0.70;;;0.50;;
42600;SDS011;28229;48.856;9.088;2022-12-31T01:10:46;0.67;;;0.67;;
42600;SDS011;28229;48.856;9.088;2022-12-31T01:13:32;0.57;;;0.50;;
42600;SDS011;28229;48.856;9.088;2022-12-31T01:16:05;0.50;;;0.50;;
42600;SDS011;28229;48.856;9.088;2022-12-31T01:18:35;0.50;;;0.50;;
42600;SDS011;28229;48.856;9.088;2022-12-31T01:21:03;0.50;;;0.50;;
42600;SDS011;28229;48.856;9.088;2022-12-31T01:23:30;1.23;;;0.60;;
42600;SDS011;28229;48.856;9.088;2022-12-31T01:26:00;1.00;;;0.80;;
42600;SDS011;28229;48.856;9.088;2022-12-31T01:28:28;0.60;;;0.60;;
42600;SDS011;28229;48.856;9.088;2022-12-31T01:30:55;0.50;;;0.50;;
42600;SDS011;28229;48.856;9.088;2022-12-31T01:33:21;0.50;;;0.50;;
42600;SDS011;28229;48.856;9.088;2022-12-31T01:36:13;0.43;;;0.43;;
42600;SDS011;28229;48.856;9.088;2022-12-31T01:38:41;0.87;;;0.40;;
42600;SDS011;28229;48.856;9.088;2022-12-31T01:41:11;0.83;;;0.60;;
42600;SDS011;28229;48.856;9.088;2022-12-31T01:43:47;0.70;;;0.70;;
42600;SDS011;28229;48.856;9.088;2022-12-31T01:46:34;0.70;;;0.63;;
42600;SDS011;28229;48.856;9.088;2022-12-31T01:52:09;0.57;;;0.57;;
42600;SDS011;28229;48.856;9.088;2022-12-31T01:54:58;0.50;;;0.50;;
42600;SDS011;28229;48.856;9.088;2022-12-31T01:57:29;2.10;;;0.60;;
42600;SDS011;28229;48.856;9.088;2022-12-31T01:59:56;0.87;;;0.60;;
42600;SDS011;28229;48.856;9.088;2022-12-31T02:02:25;0.50;;;0.50;;
42600;SDS011;28229;48.856;9.088;2022-12-31T02:04:52;0.40;;;0.40;;
42600;SDS011;28229;48.856;9.088;2022-12-31T02:07:22;0.77;;;0.70;;
42600;SDS011;28229;48.856;9.088;2022-12-31T02:09:48;0.70;;;0.70;;
42600;SDS011;28229;48.856;9.088;2022-12-31T02:12:15;1.23;;;0.60;;
42600;SDS011;28229;48.856;9.088;2022-12-31T02:14:41;1.00;;;0.70;;
42600;SDS011;28229;48.856;9.088;2022-12-31T02:31:44;0.77;;;0.77;;
42600;SDS011;28229;48.856;9.088;2022-12-31T02:37:11;0.70;;;0.67;;
42600;SDS011;28229;48.856;9.088;2022-12-31T02:39:40;1.23;;;0.60;;
42600;SDS011;28229;48.856;9.088;2022-12-31T02:42:08;1.27;;;0.70;;
42600;SDS011;28229;48.856;9.088;2022-12-31T02:44:36;0.87;;;0.70;;
42600;SDS011;28229;48.856;9.088;2022-12-31T02:52:09;1.10;;;0.70;;
42600;SDS011;28229;48.856;9.088;2022-12-31T02:58:09;1.17;;;0.70;;
42600;SDS011;28229;48.856;9.088;2022-12-31T03:00:45;0.73;;;0.73;;
42600;SDS011;28229;48.856;9.088;2022-12-31T03:03:34;0.77;;;0.73;;
42600;SDS011;28229;48.856;9.088;2022-12-31T03:06:03;1.10;;;0.80;;
42600;SDS011;28229;48.856;9.088;2022-12-31T03:08:31;0.83;;;0.70;;
42600;SDS011;28229;48.856;9.088;2022-12-31T03:11:17;0.70;;;0.70;;
42600;SDS011;28229;48.856;9.088;2022-12-31T03:14:03;1.13;;;0.70;;
42600;SDS011;28229;48.856;9.088;2022-12-31T03:16:29;0.97;;;0.70;;
42600;SDS011;28229;48.856;9.088;2022-12-31T03:18:55;0.57;;;0.50;;
42600;SDS011;28229;48.856;9.088;2022-12-31T03:21:42;0.83;;;0.73;;
42600;SDS011;28229;48.856;9.088;2022-12-31T03:24:27;1.17;;;0.67;;
42600;SDS011;28229;48.856;9.088;2022-12-31T03:27:11;0.50;;;0.50;;
42600;SDS011;28229;48.856;9.088;2022-12-31T03:29:37;0.70;;;0.70;;
42600;SDS011;28229;48.856;9.088;2022-12-31T03:32:04;1.07;;;0.60;;
42600;SDS011;28229;48.856;9.088;2022-12-31T03:34:30;0.60;;;0.60;;
42600;SDS011;28229;48.856;9.088;2022-12-31T03:36:56;1.73;;;0.97;;
42600;SDS011;28229;48.856;9.088;2022-12-31T03:39:22;1.07;;;0.70;;
42600;SDS011;28229;48.856;9.088;2022-12-31T03:41:48;0.53;;;0.53;;
42600;SDS011;28229;48.856;9.088;2022-12-31T03:44:14;1.80;;;0.80;;
42600;SDS011;28229;48.856;9.088;2022-12-31T03:46:40;0.70;;;0.70;;
42600;SDS011;28229;48.856;9.088;2022-12-31T03:49:06;0.70;;;0.53;;
42600;SDS011;28229;48.856;9.088;2022-12-31T03:51:34;1.03;;;0.60;;
42600;SDS011;28229;48.856;9.088;2022-12-31T03:54:00;2.70;;;0.90;;
42600;SDS011;28229;48.856;9.088;2022-12-31T03:56:26;1.43;;;0.70;;
42600;SDS011;28229;48.856;9.088;2022-12-31T03:58:52;0.47;;;0.40;;
42600;SDS011;28229;48.856;9.088;2022-12-31T04:01:19;0.97;;;0.63;;
42600;SDS011;28229;48.856;9.088;2022-12-31T04:03:49;0.57;;;0.57;;
42600;SDS011;28229;48.856;9.088;2022-12-31T04:06:15;0.70;;;0.70;;
42600;SDS011;28229;48.856;9.088;2022-12-31T04:08:42;0.90;;;0.60;;
42600;SDS011;28229;48.856;9.088;2022-12-31T04:11:08;0.70;;;0.70;;
42600;SDS011;28229;48.856;9.088;2022-12-31T04:13:34;1.90;;;0.73;;
42600;SDS011;28229;48.856;9.088;2022-12-31T04:16:00;0.77;;;0.77;;
42600;SDS011;28229;48.856;9.088;2022-12-31T04:18:27;0.50;;;0.50;;
42600;SDS011;28229;48.856;9.088;2022-12-31T04:20:53;1.43;;;0.60;;
42600;SDS011;28229;48.856;9.088;2022-12-31T04:23:19;0.97;;;0.60;;
42600;SDS011;28229;48.856;9.088;2022-12-31T04:25:45;0.53;;;0.53;;
42600;SDS011;28229;48.856;9.088;2022-12-31T04:28:11;1.07;;;0.60;;
42600;SDS011;28229;48.856;9.088;2022-12-31T04:30:38;0.80;;;0.60;;
42600;SDS011;28229;48.856;9.088;2022-12-31T04:33:04;0.57;;;0.50;;
42600;SDS011;28229;48.856;9.088;2022-12-31T04:35:30;0.60;;;0.60;;
42600;SDS011;28229;48.856;9.088;2022-12-31T04:37:57;0.73;;;0.63;;
42600;SDS011;28229;48.856;9.088;2022-12-31T04:40:23;0.70;;;0.70;;
42600;SDS011;28229;48.856;9.088;2022-12-31T04:42:49;0.57;;;0.57;;
42600;SDS011;28229;48.856;9.088;2022-12-31T04:45:15;0.57;;;0.57;;
42600;SDS011;28229;48.856;9.088;2022-12-31T04:47:41;0.70;;;0.70;;
42600;SDS011;28229;48.856;9.088;2022-12-31T04:50:08;1.17;;;0.70;;
42600;SDS011;28229;48.856;9.088;2022-12-31T04:52:34;0.60;;;0.60;;
42600;SDS011;28229;48.856;9.088;2022-12-31T04:55:01;0.70;;;0.70;;
42600;SDS011;28229;48.856;9.088;2022-12-31T04:57:27;0.60;;;0.60;;
42600;SDS011;28229;48.856;9.088;2022-12-31T04:59:53;1.37;;;0.70;;
42600;SDS011;28229;48.856;9.088;2022-12-31T05:02:19;1.07;;;0.97;;
42600;SDS011;28229;48.856;9.088;2022-12-31T05:04:45;0.87;;;0.87;;
42600;SDS011;28229;48.856;9.088;2022-12-31T05:07:11;0.90;;;0.80;;
42600;SDS011;28229;48.856;9.088;2022-12-31T05:09:38;0.90;;;0.90;;
42600;SDS011;28229;48.856;9.088;2022-12-31T05:12:04;1.03;;;0.60;;
42600;SDS011;28229;48.856;9.088;2022-12-31T05:14:30;0.70;;;0.70;;
42600;SDS011;28229;48.856;9.088;2022-12-31T05:16:56;0.60;;;0.60;;
42600;SDS011;28229;48.856;9.088;2022-12-31T05:19:24;0.60;;;0.60;;
42600;SDS011;28229;48.856;9.088;2022-12-31T05:21:50;0.77;;;0.70;;
42600;SDS011;28229;48.856;9.088;2022-12-31T05:24:34;0.70;;;0.70;;
42600;SDS011;28229;48.856;9.088;2022-12-31T05:27:01;0.50;;;0.50;;
42600;SDS011;28229;48.856;9.088;2022-12-31T05:29:27;0.50;;;0.50;;
42600;SDS011;28229;48.856;9.088;2022-12-31T05:31:53;0.80;;;0.80;;
42600;SDS011;28229;48.856;9.088;2022-12-31T05:34:19;0.70;;;0.70;;
42600;SDS011;28229;48.856;9.088;2022-12-31T05:36:46;1.10;;;0.60;;
42600;SDS011;28229;48.856;9.088;2022-12-31T05:39:12;0.53;;;0.53;;
42600;SDS011;28229;48.856;9.088;2022-12-31T05:41:38;0.63;;;0.63;;
42600;SDS011;28229;48.856;9.088;2022-12-31T05:44:04;1.07;;;0.60;;
42600;SDS011;28229;48.856;9.088;2022-12-31T05:46:30;0.87;;;0.83;;
42600;SDS011;28229;48.856;9.088;2022-12-31T05:48:57;0.90;;;0.90;;
42600;SDS011;28229;48.856;9.088;2022-12-31T05:51:23;1.87;;;0.73;;
42600;SDS011;28229;48.856;9.088;2022-12-31T05:53:49;0.80;;;0.60;;
42600;SDS011;28229;48.856;9.088;2022-12-31T05:56:15;0.50;;;0.50;;
42600;SDS011;28229;48.856;9.088;2022-12-31T05:58:42;0.93;;;0.70;;
42600;SDS011;28229;48.856;9.088;2022-12-31T06:01:08;0.93;;;0.90;;
42600;SDS011;28229;48.856;9.088;2022-12-31T06:03:35;0.70;;;0.53;;
42600;SDS011;28229;48.856;9.088;2022-12-31T06:06:01;0.70;;;0.70;;
42600;SDS011;28229;48.856;9.088;2022-12-31T06:08:27;0.80;;;0.80;;
42600;SDS011;28229;48.856;9.088;2022-12-31T06:10:53;0.50;;;0.50;;
42600;SDS011;28229;48.856;9.088;2022-12-31T06:13:19;0.70;;;0.70;;
42600;SDS011;28229;48.856;9.088;2022-12-31T06:15:46;0.70;;;0.70;;
42600;SDS011;28229;48.856;9.088;2022-12-31T06:18:12;1.40;;;0.60;;
42600;SDS011;28229;48.856;9.088;2022-12-31T06:20:38;0.60;;;0.60;;
42600;SDS011;28229;48.856;9.088;2022-12-31T06:23:04;0.80;;;0.70;;
42600;SDS011;28229;48.856;9.088;2022-12-31T06:25:32;0.97;;;0.80;;
42600;SDS011;28229;48.856;9.088;2022-12-31T06:27:59;0.60;;;0.60;;
42600;SDS011;28229;48.856;9.088;2022-12-31T06:30:25;0.60;;;0.60;;
42600;SDS011;28229;48.856;9.088;2022-12-31T06:32:53;0.83;;;0.83;;
42600;SDS011;28229;48.856;9.088;2022-12-31T06:35:19;12.73;;;8.03;;
42600;SDS011;28229;48.856;9.088;2022-12-31T06:37:46;1.10;;;0.97;;
42600;SDS011;28229;48.856;9.088;2022-12-31T06:40:12;0.70;;;0.70;;
42600;SDS011;28229;48.856;9.088;2022-12-31T06:42:39;1.07;;;0.70;;
42600;SDS011;28229;48.856;9.088;2022-12-31T06:45:07;1.20;;;0.80;;
42600;SDS011;28229;48.856;9.088;2022-12-31T06:47:33;1.10;;;0.80;;
42600;SDS011;28229;48.856;9.088;2022-12-31T06:49:59;0.60;;;0.60;;
42600;SDS011;28229;48.856;9.088;2022-12-31T06:52:26;0.80;;;0.80;;
42600;SDS011;28229;48.856;9.088;2022-12-31T06:54:52;0.93;;;0.80;;
42600;SDS011;28229;48.856;9.088;2022-12-31T06:57:18;0.70;;;0.70;;
42600;SDS011;28229;48.856;9.088;2022-12-31T06:59:45;0.80;;;0.70;;
42600;SDS011;28229;48.856;9.088;2022-12-31T07:02:28;1.00;;;0.53;;
42600;SDS011;28229;48.856;9.088;2022-12-31T07:05:26;0.80;;;0.80;;
42600;SDS011;28229;48.856;9.088;2022-12-31T07:08:07;0.70;;;0.70;;
42600;SDS011;28229;48.856;9.088;2022-12-31T07:18:55;2.40;;;0.80;;
42600;SDS011;28229;48.856;9.088;2022-12-31T07:21:36;0.60;;;0.60;;
42600;SDS011;28229;48.856;9.088;2022-12-31T07:24:05;0.70;;;0.70;;
42600;SDS011;28229;48.856;9.088;2022-12-31T07:26:46;0.60;;;0.60;;
42600;SDS011;28229;48.856;9.088;2022-12-31T07:29:22;0.83;;;0.80;;
42600;SDS011;28229;48.856;9.088;2022-12-31T07:32:01;0.97;;;0.83;;
42600;SDS011;28229;48.856;9.088;2022-12-31T07:34:41;0.93;;;0.70;;
42600;SDS011;28229;48.856;9.088;2022-12-31T07:46:17;0.90;;;0.90;;
42600;SDS011;28229;48.856;9.088;2022-12-31T07:48:51;1.00;;;1.00;;
42600;SDS011;28229;48.856;9.088;2022-12-31T07:51:17;3.27;;;2.07;;
42600;SDS011;28229;48.856;9.088;2022-12-31T07:53:44;2.70;;;1.90;;
42600;SDS011;28229;48.856;9.088;2022-12-31T07:56:10;0.80;;;0.80;;
42600;SDS011;28229;48.856;9.088;2022-12-31T08:01:18;0.80;;;0.80;;
42600;SDS011;28229;48.856;9.088;2022-12-31T08:06:50;0.87;;;0.87;;
42600;SDS011;28229;48.856;9.088;2022-12-31T08:12:13;1.10;;;1.00;;
42600;SDS011;28229;48.856;9.088;2022-12-31T08:14:43;1.67;;;0.80;;
42600;SDS011;28229;48.856;9.088;2022-12-31T08:17:12;1.20;;;0.70;;
42600;SDS011;28229;48.856;9.088;2022-12-31T08:19:41;0.70;;;0.70;;
42600;SDS011;28229;48.856;9.088;2022-12-31T08:22:13;1.77;;;1.00;;
42600;SDS011;28229;48.856;9.088;2022-12-31T08:24:58;1.00;;;0.80;;
42600;SDS011;28229;48.856;9.088;2022-12-31T08:30:28;0.97;;;0.70;;
42600;SDS011;28229;48.856;9.088;2022-12-31T08:41:27;2.10;;;1.23;;
42600;SDS011;28229;48.856;9.088;2022-12-31T08:46:49;0.87;;;0.80;;
42600;SDS011;28229;48.856;9.088;2022-12-31T08:49:20;0.93;;;0.90;;
42600;SDS011;28229;48.856;9.088;2022-12-31T08:51:46;1.00;;;0.90;;
42600;SDS011;28229;48.856;9.088;2022-12-31T08:54:13;2.83;;;1.20;;
42600;SDS011;28229;48.856;9.088;2022-12-31T08:56:41;1.00;;;0.90;;
42600;SDS011;28229;48.856;9.088;2022-12-31T08:59:35;1.20;;;0.70;;
42600;SDS011;28229;48.856;9.088;2022-12-31T09:02:24;1.10;;;1.00;;
42600;SDS011;28229;48.856;9.088;2022-12-31T09:10:58;0.90;;;0.90;;
42600;SDS011;28229;48.856;9.088;2022-12-31T09:13:38;1.03;;;0.90;;
42600;SDS011;28229;48.856;9.088;2022-12-31T09:16:28;1.20;;;1.10;;
42600;SDS011;28229;48.856;9.088;2022-12-31T09:19:03;2.17;;;0.97;;
42600;SDS011;28229;48.856;9.088;2022-12-31T09:21:29;1.07;;;1.07;;
42600;SDS011;28229;48.856;9.088;2022-12-31T09:23:57;1.00;;;0.90;;
42600;SDS011;28229;48.856;9.088;2022-12-31T09:26:42;0.93;;;0.93;;
42600;SDS011;28229;48.856;9.088;2022-12-31T09:31:55;1.53;;;1.07;;
42600;SDS011;28229;48.856;9.088;2022-12-31T09:34:53;0.77;;;0.77;;
42600;SDS011;28229;48.856;9.088;2022-12-31T09:37:44;1.43;;;0.90;;
42600;SDS011;28229;48.856;9.088;2022-12-31T09:43:25;1.00;;;1.00;;
42600;SDS011;28229;48.856;9.088;2022-12-31T09:54:51;1.57;;;0.70;;
42600;SDS011;28229;48.856;9.088;2022-12-31T09:57:26;1.43;;;0.80;;
42600;SDS011;28229;48.856;9.088;2022-12-31T09:59:57;2.07;;;1.10;;
42600;SDS011;28229;48.856;9.088;2022-12-31T10:05:27;1.23;;;0.80;;
42600;SDS011;28229;48.856;9.088;2022-12-31T10:08:09;1.43;;;0.70;;
42600;SDS011;28229;48.856;9.088;2022-12-31T10:19:29;0.77;;;0.77;;
42600;SDS011;28229;48.856;9.088;2022-12-31T10:27:41;0.50;;;0.50;;
42600;SDS011;28229;48.856;9.088;2022-12-31T10:30:15;0.43;;;0.43;;
42600;SDS011;28229;48.856;9.088;2022-12-31T10:41:51;1.03;;;0.60;;
42600;SDS011;28229;48.856;9.088;2022-12-31T10:44:34;0.60;;;0.60;;
42600;SDS011;28229;48.856;9.088;2022-12-31T11:01:19;0.50;;;0.50;;
42600;SDS011;28229;48.856;9.088;2022-12-31T11:04:01;1.03;;;0.60;;
42600;SDS011;28229;48.856;9.088;2022-12-31T11:15:45;0.67;;;0.67;;
42600;SDS011;28229;48.856;9.088;2022-12-31T11:18:29;0.57;;;0.53;;
42600;SDS011;28229;48.856;9.088;2022-12-31T11:23:54;0.73;;;0.47;;
42600;SDS011;28229;48.856;9.088;2022-12-31T11:37:49;0.97;;;0.50;;
42600;SDS011;28229;48.856;9.088;2022-12-31T11:40:40;1.23;;;0.67;;
42600;SDS011;28229;48.856;9.088;2022-12-31T11:43:33;0.60;;;0.60;;
42600;SDS011;28229;48.856;9.088;2022-12-31T11:57:42;1.13;;;0.60;;
42600;SDS011;28229;48.856;9.088;2022-12-31T12:00:17;0.60;;;0.60;;
42600;SDS011;28229;48.856;9.088;2022-12-31T12:05:21;0.30;;;0.30;;
42600;SDS011;28229;48.856;9.088;2022-12-31T12:07:49;1.60;;;0.70;;
42600;SDS011;28229;48.856;9.088;2022-12-31T12:13:13;0.40;;;0.40;;
42600;SDS011;28229;48.856;9.088;2022-12-31T12:15:53;1.47;;;0.80;;
42600;SDS011;28229;48.856;9.088;2022-12-31T12:18:26;0.43;;;0.40;;
42600;SDS011;28229;48.856;9.088;2022-12-31T12:21:16;0.60;;;0.60;;
42600;SDS011;28229;48.856;9.088;2022-12-31T12:23:53;0.50;;;0.50;;
42600;SDS011;28229;48.856;9.088;2022-12-31T12:26:53;0.50;;;0.50;;
42600;SDS011;28229;48.856;9.088;2022-12-31T12:31:39;0.47;;;0.47;;
42600;SDS011;28229;48.856;9.088;2022-12-31T12:34:16;0.50;;;0.47;;
42600;SDS011;28229;48.856;9.088;2022-12-31T12:36:48;0.53;;;0.53;;
42600;SDS011;28229;48.856;9.088;2022-12-31T12:39:17;1.07;;;0.60;;
42600;SDS011;28229;48.856;9.088;2022-12-31T12:42:00;0.50;;;0.50;;
42600;SDS011;28229;48.856;9.088;2022-12-31T12:44:33;0.60;;;0.60;;
42600;SDS011;28229;48.856;9.088;2022-12-31T12:47:01;0.57;;;0.53;;
42600;SDS011;28229;48.856;9.088;2022-12-31T12:50:03;1.40;;;0.53;;
42600;SDS011;28229;48.856;9.088;2022-12-31T13:04:02;0.67;;;0.67;;
42600;SDS011;28229;48.856;9.088;2022-12-31T13:12:28;0.80;;;0.60;;
42600;SDS011;28229;48.856;9.088;2022-12-31T13:15:15;0.60;;;0.60;;
42600;SDS011;28229;48.856;9.088;2022-12-31T13:23:25;0.67;;;0.67;;
42600;SDS011;28229;48.856;9.088;2022-12-31T13:26:06;0.53;;;0.50;;
42600;SDS011;28229;48.856;9.088;2022-12-31T13:28:52;0.60;;;0.60;;
42600;SDS011;28229;48.856;9.088;2022-12-31T13:31:22;0.60;;;0.60;;
42600;SDS011;28229;48.856;9.088;2022-12-31T13:34:00;1.33;;;0.90;;
42600;SDS011;28229;48.856;9.088;2022-12-31T13:36:31;0.90;;;0.90;;
42600;SDS011;28229;48.856;9.088;2022-12-31T13:39:01;1.17;;;1.00;;
42600;SDS011;28229;48.856;9.088;2022-12-31T13:41:47;0.97;;;0.90;;
42600;SDS011;28229;48.856;9.088;2022-12-31T13:44:23;1.57;;;1.27;;
42600;SDS011;28229;48.856;9.088;2022-12-31T13:46:53;0.87;;;0.87;;
42600;SDS011;28229;48.856;9.088;2022-12-31T13:49:27;0.60;;;0.60;;
42600;SDS011;28229;48.856;9.088;2022-12-31T13:54:37;0.80;;;0.80;;
42600;SDS011;28229;48.856;9.088;2022-12-31T13:57:11;1.10;;;0.70;;
42600;SDS011;28229;48.856;9.088;2022-12-31T13:59:47;1.40;;;1.30;;
42600;SDS011;28229;48.856;9.088;2022-12-31T14:05:25;3.17;;;2.37;;
42600;SDS011;28229;48.856;9.088;2022-12-31T14:07:58;5.33;;;3.47;;
42600;SDS011;28229;48.856;9.088;2022-12-31T14:13:44;5.80;;;3.13;;
42600;SDS011;28229;48.856;9.088;2022-12-31T14:25:24;1.50;;;1.40;;
42600;SDS011;28229;48.856;9.088;2022-12-31T14:27:59;0.90;;;0.60;;
42600;SDS011;28229;48.856;9.088;2022-12-31T14:30:29;0.67;;;0.53;;
42600;SDS011;28229;48.856;9.088;2022-12-31T14:36:24;0.53;;;0.50;;
42600;SDS011;28229;48.856;9.088;2022-12-31T14:47:35;0.60;;;0.60;;
42600;SDS011;28229;48.856;9.088;2022-12-31T14:50:13;0.50;;;0.50;;
42600;SDS011;28229;48.856;9.088;2022-12-31T14:53:16;0.60;;;0.60;;
42600;SDS011;28229;48.856;9.088;2022-12-31T14:55:43;1.20;;;0.83;;
42600;SDS011;28229;48.856;9.088;2022-12-31T14:58:20;1.07;;;0.90;;
42600;SDS011;28229;48.856;9.088;2022-12-31T15:00:52;2.53;;;0.80;;
42600;SDS011;28229;48.856;9.088;2022-12-31T15:19:55;0.90;;;0.90;;
42600;SDS011;28229;48.856;9.088;2022-12-31T15:22:50;1.20;;;1.10;;
42600;SDS011;28229;48.856;9.088;2022-12-31T15:25:26;0.90;;;0.90;;
42600;SDS011;28229;48.856;9.088;2022-12-31T15:28:36;1.20;;;1.10;;
42600;SDS011;28229;48.856;9.088;2022-12-31T15:31:15;1.13;;;1.00;;
42600;SDS011;28229;48.856;9.088;2022-12-31T15:36:22;1.10;;;1.10;;
42600;SDS011;28229;48.856;9.088;2022-12-31T15:38:51;1.90;;;1.80;;
42600;SDS011;28229;48.856;9.088;2022-12-31T15:41:47;2.00;;;1.90;;
42600;SDS011;28229;48.856;9.088;2022-12-31T15:44:28;1.80;;;1.20;;
42600;SDS011;28229;48.856;9.088;2022-12-31T15:47:01;1.50;;;1.40;;
42600;SDS011;28229;48.856;9.088;2022-12-31T15:49:35;1.53;;;1.40;;
42600;SDS011;28229;48.856;9.088;2022-12-31T15:52:06;1.20;;;1.10;;
42600;SDS011;28229;48.856;9.088;2022-12-31T15:54:40;0.80;;;0.80;;
42600;SDS011;28229;48.856;9.088;2022-12-31T15:57:16;2.93;;;2.10;;
42600;SDS011;28229;48.856;9.088;2022-12-31T15:59:44;14.53;;;7.60;;
42600;SDS011;28229;48.856;9.088;2022-12-31T16:02:17;2.40;;;1.50;;
42600;SDS011;28229;48.856;9.088;2022-12-31T16:04:46;1.00;;;1.00;;
42600;SDS011;28229;48.856;9.088;2022-12-31T16:07:13;1.57;;;1.30;;
42600;SDS011;28229;48.856;9.088;2022-12-31T16:09:40;1.10;;;1.00;;
42600;SDS011;28229;48.856;9.088;2022-12-31T16:12:08;1.10;;;1.00;;
42600;SDS011;28229;48.856;9.088;2022-12-31T16:14:41;1.30;;;1.20;;
42600;SDS011;28229;48.856;9.088;2022-12-31T16:17:26;0.90;;;0.90;;
42600;SDS011;28229;48.856;9.088;2022-12-31T16:19:55;1.23;;;1.13;;
42600;SDS011;28229;48.856;9.088;2022-12-31T16:22:24;1.50;;;1.40;;
42600;SDS011;28229;48.856;9.088;2022-12-31T16:25:01;1.30;;;1.20;;
42600;SDS011;28229;48.856;9.088;2022-12-31T16:27:28;1.30;;;1.20;;
42600;SDS011;28229;48.856;9.088;2022-12-31T16:29:58;1.20;;;1.10;;
42600;SDS011;28229;48.856;9.088;2022-12-31T16:32:32;1.07;;;1.00;;
42600;SDS011;28229;48.856;9.088;2022-12-31T16:34:59;1.47;;;1.30;;
42600;SDS011;28229;48.856;9.088;2022-12-31T16:37:26;2.17;;;1.30;;
42600;SDS011;28229;48.856;9.088;2022-12-31T16:42:21;1.93;;;1.83;;
42600;SDS011;28229;48.856;9.088;2022-12-31T16:44:49;2.53;;;1.90;;
42600;SDS011;28229;48.856;9.088;2022-12-31T16:47:28;2.00;;;1.90;;
42600;SDS011;28229;48.856;9.088;2022-12-31T16:50:00;1.40;;;1.30;;
42600;SDS011;28229;48.856;9.088;2022-12-31T16:55:05;2.27;;;2.13;;
42600;SDS011;28229;48.856;9.088;2022-12-31T16:57:33;3.07;;;2.77;;
42600;SDS011;28229;48.856;9.088;2022-12-31T17:00:01;3.40;;;2.50;;
42600;SDS011;28229;48.856;9.088;2022-12-31T17:02:33;2.20;;;2.00;;
42600;SDS011;28229;48.856;9.088;2022-12-31T17:05:04;1.57;;;1.47;;
42600;SDS011;28229;48.856;9.088;2022-12-31T17:07:43;2.17;;;1.60;;
42600;SDS011;28229;48.856;9.088;2022-12-31T17:12:41;2.10;;;1.90;;
42600;SDS011;28229;48.856;9.088;2022-12-31T17:15:21;1.70;;;1.60;;
42600;SDS011;28229;48.856;9.088;2022-12-31T17:17:52;3.00;;;2.37;;
42600;SDS011;28229;48.856;9.088;2022-12-31T17:20:24;5.17;;;3.87;;
42600;SDS011;28229;48.856;9.088;2022-12-31T17:22:53;11.77;;;6.97;;
42600;SDS011;28229;48.856;9.088;2022-12-31T17:25:26;9.97;;;6.67;;
42600;SDS011;28229;48.856;9.088;2022-12-31T17:28:02;4.63;;;4.10;;
42600;SDS011;28229;48.856;9.088;2022-12-31T17:33:03;1.60;;;1.50;;
42600;SDS011;28229;48.856;9.088;2022-12-31T17:40:49;1.80;;;1.70;;
42600;SDS011;28229;48.856;9.088;2022-12-31T17:43:16;1.80;;;1.70;;
42600;SDS011;28229;48.856;9.088;2022-12-31T17:45:44;1.80;;;1.70;;
42600;SDS011;28229;48.856;9.088;2022-12-31T17:48:13;1.70;;;1.60;;
42600;SDS011;28229;48.856;9.088;2022-12-31T17:50:56;2.40;;;2.20;;
42600;SDS011;28229;48.856;9.088;2022-12-31T17:53:24;1.90;;;1.80;;
42600;SDS011;28229;48.856;9.088;2022-12-31T17:55:54;2.80;;;2.37;;
42600;SDS011;28229;48.856;9.088;2022-12-31T17:58:35;2.93;;;2.23;;
42600;SDS011;28229;48.856;9.088;2022-12-31T18:01:07;2.77;;;2.30;;
42600;SDS011;28229;48.856;9.088;2022-12-31T18:03:34;4.03;;;2.20;;
42600;SDS011;28229;48.856;9.088;2022-12-31T18:06:01;2.63;;;2.00;;
42600;SDS011;28229;48.856;9.088;2022-12-31T18:08:27;3.03;;;2.03;;
42600;SDS011;28229;48.856;9.088;2022-12-31T18:10:53;3.07;;;2.63;;
42600;SDS011;28229;48.856;9.088;2022-12-31T18:13:23;2.40;;;2.20;;
42600;SDS011;28229;48.856;9.088;2022-12-31T18:15:52;2.63;;;2.40;;
42600;SDS011;28229;48.856;9.088;2022-12-31T18:18:23;2.60;;;2.40;;
42600;SDS011;28229;48.856;9.088;2022-12-31T18:20:58;2.70;;;2.50;;
42600;SDS011;28229;48.856;9.088;2022-12-31T18:23:28;3.20;;;2.70;;
42600;SDS011;28229;48.856;9.088;2022-12-31T18:26:00;2.90;;;2.60;;
42600;SDS011;28229;48.856;9.088;2022-12-31T18:28:26;2.60;;;2.40;;
42600;SDS011;28229;48.856;9.088;2022-12-31T18:30:52;3.17;;;2.40;;
42600;SDS011;28229;48.856;9.088;2022-12-31T18:33:18;3.93;;;2.90;;
42600;SDS011;28229;48.856;9.088;2022-12-31T18:35:48;3.63;;;3.17;;
42600;SDS011;28229;48.856;9.088;2022-12-31T18:38:16;3.77;;;2.90;;
42600;SDS011;28229;48.856;9.088;2022-12-31T18:40:45;3.23;;;2.63;;
42600;SDS011;28229;48.856;9.088;2022-12-31T18:43:18;3.07;;;2.77;;
42600;SDS011;28229;48.856;9.088;2022-12-31T18:45:45;4.93;;;3.30;;
42600;SDS011;28229;48.856;9.088;2022-12-31T18:48:12;4.70;;;3.97;;
42600;SDS011;28229;48.856;9.088;2022-12-31T18:50:39;3.00;;;2.80;;
42600;SDS011;28229;48.856;9.088;2022-12-31T18:53:06;3.23;;;2.80;;
42600;SDS011;28229;48.856;9.088;2022-12-31T18:58:08;4.73;;;3.80;;
42600;SDS011;28229;48.856;9.088;2022-12-31T19:00:34;4.87;;;3.47;;
42600;SDS011;28229;48.856;9.088;2022-12-31T19:03:01;4.07;;;3.40;;
42600;SDS011;28229;48.856;9.088;2022-12-31T19:05:28;2.60;;;2.40;;
42600;SDS011;28229;48.856;9.088;2022-12-31T19:07:56;4.37;;;2.73;;
42600;SDS011;28229;48.856;9.088;2022-12-31T19:10:23;3.00;;;2.40;;
42600;SDS011;28229;48.856;9.088;2022-12-31T19:12:50;3.10;;;2.80;;
42600;SDS011;28229;48.856;9.088;2022-12-31T19:15:33;3.07;;;2.60;;
42600;SDS011;28229;48.856;9.088;2022-12-31T19:18:06;2.77;;;2.50;;
42600;SDS011;28229;48.856;9.088;2022-12-31T19:20:34;2.93;;;2.70;;
42600;SDS011;28229;48.856;9.088;2022-12-31T19:23:00;3.30;;;3.00;;
42600;SDS011;28229;48.856;9.088;2022-12-31T19:25:29;4.17;;;3.40;;
42600;SDS011;28229;48.856;9.088;2022-12-31T19:28:00;4.30;;;3.50;;
42600;SDS011;28229;48.856;9.088;2022-12-31T19:30:28;4.63;;;3.53;;
42600;SDS011;28229;48.856;9.088;2022-12-31T19:32:56;6.33;;;4.00;;
42600;SDS011;28229;48.856;9.088;2022-12-31T19:35:23;4.60;;;3.77;;
42600;SDS011;28229;48.856;9.088;2022-12-31T19:37:50;4.93;;;4.43;;
42600;SDS011;28229;48.856;9.088;2022-12-31T19:40:19;3.73;;;3.43;;